Terminal Aerodrome Forecast
Issued by NWS Dallas/Fort Worth, TX

Home | Current Version | Previous Version | Text Only | Print | Product List | Glossary On
Versions: 1 2 3 4 5 6 7 8 9 10 11 12 13 14 15 16 17 18 19 20 21 22 23 24 25 26 27 28 29 30 31
405
FTUS44 KFWD 292338
TAFACT
TAF
KACT 292338Z 3000/3024 17014KT P6SM VCTS BKN030CB BKN050
      TEMPO 3000/3004 5SM TSRA BKN030CB
     FM300500 18010KT P6SM BKN080
     FM300600 18008KT P6SM BKN015
     FM300900 23008KT P6SM BKN015
     FM301300 31010KT P6SM SKC=

USA.gov is the U.S. government's official web portal to all federal, state and local government web resources and services.